Time;durP1;ratioP1;P1;durP2;ratioP2;P2;SDS_P1;SDS_P2;PMS_P1;PMS_P2;Temp;Humidity;BMP_temperature;BMP_pressure;BME280_temperature;BME280_humidity;BME280_pressure;Samples;Min_cycle;Max_cycle;Signal;HPM_P1;HPM_P2
2022/04/02 00:01:43;;;;;;;9.70;4.97;;;;;;;;;;5072877;28;20025;-83
2022/04/02 00:04:09;;;;;;;10.95;5.70;;;;;;;;;;5072741;28;20106;-81
2022/04/02 00:06:36;;;;;;;12.52;6.80;;;;;;;;;;5072799;28;20032;-82
2022/04/02 00:09:02;;;;;;;5.53;2.95;;;;;;;;;;5072803;28;20158;-80
2022/04/02 00:11:28;;;;;;;5.32;2.35;;;;;;;;;;5072838;28;20103;-81
2022/04/02 00:13:54;;;;;;;3.00;1.27;;;;;;;;;;5054607;28;20036;-81
2022/04/02 00:16:20;;;;;;;4.50;2.75;;;;;;;;;;5054657;28;20509;-81
2022/04/02 00:18:49;;;;;;;4.70;2.35;;;;;;;;;;5072322;28;20048;-81
2022/04/02 00:21:15;;;;;;;3.45;2.30;;;;;;;;;;5072538;28;20040;-81
2022/04/02 00:23:44;;;;;;;3.58;1.52;;;;;;;;;;5072509;28;20074;-82
2022/04/02 00:26:14;;;;;;;3.92;2.30;;;;;;;;;;5072397;28;20123;-82
2022/04/02 00:28:42;;;;;;;4.22;2.45;;;;;;;;;;5072580;28;20033;-80
2022/04/02 00:31:08;;;;;;;2.75;2.05;;;;;;;;;;5054322;28;20017;-80
2022/04/02 00:33:35;;;;;;;3.97;1.50;;;;;;;;;;5072367;28;20530;-83
2022/04/02 00:36:01;;;;;;;3.90;1.90;;;;;;;;;;5054235;28;20036;-81
2022/04/02 00:38:28;;;;;;;2.58;1.20;;;;;;;;;;5072538;28;20028;-82
2022/04/02 00:40:54;;;;;;;4.80;2.72;;;;;;;;;;5072200;28;20029;-80
2022/04/02 00:43:24;;;;;;;2.85;1.33;;;;;;;;;;5072330;28;20032;-82
2022/04/02 00:45:51;;;;;;;3.33;0.93;;;;;;;;;;5072104;28;20063;-81
2022/04/02 00:48:18;;;;;;;2.10;1.10;;;;;;;;;;5054210;28;20403;-80
2022/04/02 00:50:45;;;;;;;2.38;1.52;;;;;;;;;;5072317;28;20032;-80
2022/04/02 00:53:12;;;;;;;2.97;1.60;;;;;;;;;;5054228;28;20395;-81
2022/04/02 00:55:39;;;;;;;3.88;1.63;;;;;;;;;;5072190;28;20036;-83
2022/04/02 00:58:07;;;;;;;3.22;1.10;;;;;;;;;;5072000;28;20031;-82
2022/04/02 01:00:34;;;;;;;2.05;0.70;;;;;;;;;;5054039;28;20025;-81
2022/04/02 01:03:00;;;;;;;0.43;0.30;;;;;;;;;;5072005;28;20028;-82
2022/04/02 01:05:27;;;;;;;2.50;0.40;;;;;;;;;;5072292;28;20025;-82
2022/04/02 01:07:53;;;;;;;1.83;0.50;;;;;;;;;;5071831;28;20380;-81
2022/04/02 01:10:20;;;;;;;0.80;0.20;;;;;;;;;;5072209;28;20048;-83
2022/04/02 01:12:46;;;;;;;0.70;0.50;;;;;;;;;;5071840;28;20031;-80
2022/04/02 01:15:12;;;;;;;0.82;0.35;;;;;;;;;;5071879;28;20035;-83
2022/04/02 01:17:40;;;;;;;1.45;0.50;;;;;;;;;;5071791;28;20056;-82
2022/04/02 01:20:10;;;;;;;1.20;0.30;;;;;;;;;;5071904;28;20029;-82
2022/04/02 01:22:37;;;;;;;1.67;0.30;;;;;;;;;;5071933;28;20153;-82
2022/04/02 01:25:05;;;;;;;1.65;0.30;;;;;;;;;;5054115;28;20020;-81
2022/04/02 01:27:31;;;;;;;3.30;1.33;;;;;;;;;;5054090;28;20024;-80
2022/04/02 01:29:57;;;;;;;1.63;0.57;;;;;;;;;;5053796;28;20024;-80
2022/04/02 01:32:23;;;;;;;0.80;0.50;;;;;;;;;;5071833;28;20517;-83
2022/04/02 01:34:50;;;;;;;1.02;0.50;;;;;;;;;;5071707;28;20475;-82
2022/04/02 01:37:18;;;;;;;1.52;0.50;;;;;;;;;;5071838;28;20153;-81
2022/04/02 01:39:45;;;;;;;1.38;0.43;;;;;;;;;;5071714;28;20536;-82
2022/04/02 01:42:12;;;;;;;0.93;0.50;;;;;;;;;;5071635;28;20047;-82
2022/04/02 01:44:38;;;;;;;2.90;0.40;;;;;;;;;;5071733;28;20550;-82
2022/04/02 01:47:04;;;;;;;1.05;0.30;;;;;;;;;;5071743;28;20028;-82
2022/04/02 01:49:30;;;;;;;0.80;0.30;;;;;;;;;;5053835;28;20028;-83
2022/04/02 01:51:57;;;;;;;1.00;0.30;;;;;;;;;;5071391;28;20028;-81
2022/04/02 01:54:23;;;;;;;1.13;0.38;;;;;;;;;;5071611;28;20110;-81
2022/04/02 01:56:49;;;;;;;0.50;0.30;;;;;;;;;;5071613;28;20083;-80
2022/04/02 01:59:15;;;;;;;1.77;0.28;;;;;;;;;;5071590;28;20548;-82
2022/04/02 02:01:42;;;;;;;1.58;0.40;;;;;;;;;;5075052;28;20032;-83
2022/04/02 02:04:08;;;;;;;4.22;0.80;;;;;;;;;;5075174;28;20031;-80
2022/04/02 02:06:38;;;;;;;1.05;0.20;;;;;;;;;;5057296;28;20029;-80
2022/04/02 02:09:05;;;;;;;0.52;0.20;;;;;;;;;;5075091;28;20094;-83
2022/04/02 02:11:31;;;;;;;2.50;0.85;;;;;;;;;;5075249;28;20503;-83
2022/04/02 02:13:58;;;;;;;1.25;0.50;;;;;;;;;;5074887;28;20476;-82
2022/04/02 02:16:24;;;;;;;1.90;0.20;;;;;;;;;;5056962;28;20464;-82
2022/04/02 02:18:51;;;;;;;0.70;0.20;;;;;;;;;;5074659;28;20036;-81
2022/04/02 02:21:17;;;;;;;0.65;0.30;;;;;;;;;;5074876;28;20036;-81
2022/04/02 02:23:43;;;;;;;4.22;0.40;;;;;;;;;;5074852;28;20025;-81
2022/04/02 02:26:09;;;;;;;4.13;0.30;;;;;;;;;;5074785;28;20107;-81
2022/04/02 02:28:36;;;;;;;2.47;0.28;;;;;;;;;;5074744;28;20047;-80
2022/04/02 02:31:02;;;;;;;2.65;0.30;;;;;;;;;;5074661;28;20027;-80
2022/04/02 02:36:13;;;;;;;0.82;0.13;;;;;;;;;;5074524;28;20047;-82
2022/04/02 02:38:39;;;;;;;0.80;0.32;;;;;;;;;;5074561;28;20035;-82
2022/04/02 02:41:06;;;;;;;0.70;0.45;;;;;;;;;;5074515;28;20058;-80
2022/04/02 02:43:33;;;;;;;4.28;0.50;;;;;;;;;;5074521;28;20116;-81
2022/04/02 02:45:59;;;;;;;1.75;0.68;;;;;;;;;;5074226;28;20067;-80
2022/04/02 02:48:25;;;;;;;1.65;0.60;;;;;;;;;;5074425;28;20044;-81
2022/04/02 02:50:51;;;;;;;5.63;3.08;;;;;;;;;;5056407;28;20098;-81
2022/04/02 02:53:17;;;;;;;5.47;0.70;;;;;;;;;;5074416;28;20600;-82
2022/04/02 02:55:48;;;;;;;3.40;0.52;;;;;;;;;;5074190;28;20017;-83
2022/04/02 02:58:14;;;;;;;2.47;0.55;;;;;;;;;;5056293;28;20024;-82
2022/04/02 03:00:41;;;;;;;2.30;0.40;;;;;;;;;;5055537;28;20036;-83
2022/04/02 03:03:07;;;;;;;1.92;0.30;;;;;;;;;;5073541;28;20033;-81
2022/04/02 03:05:33;;;;;;;0.77;0.30;;;;;;;;;;5056105;28;20024;-82
2022/04/02 03:08:02;;;;;;;2.30;0.50;;;;;;;;;;5073785;28;20081;-81
2022/04/02 03:10:28;;;;;;;0.77;0.20;;;;;;;;;;5073948;28;20395;-80
2022/04/02 03:12:55;;;;;;;1.95;0.40;;;;;;;;;;5073669;28;20090;-80
2022/04/02 03:15:22;;;;;;;3.58;1.23;;;;;;;;;;5073792;28;20024;-82
2022/04/02 03:17:49;;;;;;;7.28;0.68;;;;;;;;;;5073386;28;20061;-82
2022/04/02 03:20:17;;;;;;;3.67;0.52;;;;;;;;;;5073618;28;20115;-80
2022/04/02 03:22:45;;;;;;;3.20;0.43;;;;;;;;;;5073727;28;20099;-80
2022/04/02 03:25:17;;;;;;;1.73;0.45;;;;;;;;;;5073364;28;20016;-82
2022/04/02 03:27:44;;;;;;;5.03;2.67;;;;;;;;;;5073702;28;20380;-83
2022/04/02 03:30:11;;;;;;;3.72;1.90;;;;;;;;;;5073443;28;20101;-83
2022/04/02 03:32:37;;;;;;;2.47;1.17;;;;;;;;;;5073544;28;20041;-82
2022/04/02 03:35:04;;;;;;;3.92;1.00;;;;;;;;;;5073386;28;20032;-81
2022/04/02 03:37:30;;;;;;;1.67;0.57;;;;;;;;;;5073468;28;20032;-83
2022/04/02 03:39:57;;;;;;;2.20;0.30;;;;;;;;;;5073216;28;20030;-81
2022/04/02 03:42:25;;;;;;;2.38;0.60;;;;;;;;;;5073426;28;20021;-82
2022/04/02 03:44:51;;;;;;;0.82;0.20;;;;;;;;;;5073174;28;20577;-81
2022/04/02 03:47:22;;;;;;;6.90;0.50;;;;;;;;;;5073395;28;20032;-81
2022/04/02 03:49:50;;;;;;;1.52;0.20;;;;;;;;;;5073255;28;20028;-81
2022/04/02 03:52:16;;;;;;;1.85;0.30;;;;;;;;;;5073140;28;20081;-83
2022/04/02 03:54:42;;;;;;;0.68;0.28;;;;;;;;;;5073244;28;20032;-83
2022/04/02 03:57:10;;;;;;;0.60;0.20;;;;;;;;;;5073034;28;20161;-80
2022/04/02 03:59:37;;;;;;;0.90;0.45;;;;;;;;;;5073132;28;20392;-81
2022/04/02 04:02:07;;;;;;;1.95;0.43;;;;;;;;;;5072743;28;20467;-82
2022/04/02 04:04:35;;;;;;;3.70;0.60;;;;;;;;;;5072943;28;20025;-84
2022/04/02 04:07:02;;;;;;;1.42;0.20;;;;;;;;;;5054866;28;20035;-84
2022/04/02 04:09:28;;;;;;;9.68;0.68;;;;;;;;;;5072982;28;20024;-82
2022/04/02 04:11:54;;;;;;;2.70;0.47;;;;;;;;;;5072498;28;20020;-81
2022/04/02 04:14:22;;;;;;;1.10;0.40;;;;;;;;;;5072806;28;20033;-80
2022/04/02 04:16:48;;;;;;;3.25;0.40;;;;;;;;;;5072351;28;20153;-83
2022/04/02 04:19:15;;;;;;;8.13;0.90;;;;;;;;;;5072762;28;20079;-84
2022/04/02 04:21:41;;;;;;;5.03;0.60;;;;;;;;;;5072766;28;20067;-82
2022/04/02 04:24:08;;;;;;;4.32;0.70;;;;;;;;;;5072002;28;20044;-81
2022/04/02 04:26:34;;;;;;;1.05;0.30;;;;;;;;;;5072603;28;20566;-80
2022/04/02 04:29:00;;;;;;;3.47;0.40;;;;;;;;;;5072361;28;20032;-81
2022/04/02 04:31:26;;;;;;;1.60;0.50;;;;;;;;;;5072459;28;20032;-82
2022/04/02 04:33:53;;;;;;;1.60;0.35;;;;;;;;;;5054382;28;20463;-82
2022/04/02 04:36:19;;;;;;;2.10;0.40;;;;;;;;;;5054635;28;20036;-83
2022/04/02 04:38:46;;;;;;;2.33;0.43;;;;;;;;;;5072151;28;20496;-81
2022/04/02 04:41:13;;;;;;;1.67;0.25;;;;;;;;;;5072208;28;20036;-81
2022/04/02 04:43:41;;;;;;;1.88;0.40;;;;;;;;;;5072371;28;20483;-84
2022/04/02 04:46:07;;;;;;;2.47;0.35;;;;;;;;;;5054123;28;20109;-83
2022/04/02 04:48:35;;;;;;;15.98;9.75;;;;;;;;;;5072471;28;20475;-82
2022/04/02 04:51:02;;;;;;;53.45;36.50;;;;;;;;;;5054367;28;20475;-81
2022/04/02 04:53:28;;;;;;;36.67;23.58;;;;;;;;;;5054484;28;20543;-82
2022/04/02 04:55:54;;;;;;;23.08;14.60;;;;;;;;;;5072299;28;20056;-84
2022/04/02 04:58:20;;;;;;;3.33;1.85;;;;;;;;;;5072236;28;20024;-81
2022/04/02 05:00:46;;;;;;;2.35;1.13;;;;;;;;;;5072204;28;20029;-83
2022/04/02 05:03:13;;;;;;;8.35;3.13;;;;;;;;;;5072036;28;20021;-85
2022/04/02 05:05:39;;;;;;;2.22;0.45;;;;;;;;;;5072168;28;20051;-84
2022/04/02 05:08:08;;;;;;;2.15;0.73;;;;;;;;;;5053813;28;20467;-83
2022/04/02 05:10:34;;;;;;;1.58;0.40;;;;;;;;;;5072016;28;20029;-81
2022/04/02 05:13:04;;;;;;;1.15;0.20;;;;;;;;;;5071819;28;20078;-84
2022/04/02 05:15:30;;;;;;;0.45;0.25;;;;;;;;;;5072125;28;20100;-84
2022/04/02 05:17:56;;;;;;;0.75;0.20;;;;;;;;;;5071616;28;20045;-83
2022/04/02 05:20:22;;;;;;;0.60;0.20;;;;;;;;;;5053866;28;20033;-81
2022/04/02 05:22:49;;;;;;;1.60;0.20;;;;;;;;;;5071847;28;20028;-82
2022/04/02 05:25:15;;;;;;;1.77;0.35;;;;;;;;;;5071702;28;20104;-83
2022/04/02 05:27:41;;;;;;;0.80;0.50;;;;;;;;;;5072115;28;20094;-83
2022/04/02 05:30:08;;;;;;;0.90;0.20;;;;;;;;;;5071956;28;20026;-82
2022/04/02 05:32:34;;;;;;;1.25;0.50;;;;;;;;;;5071928;28;20043;-82
2022/04/02 05:35:00;;;;;;;1.52;0.20;;;;;;;;;;5073122;28;20487;-84
2022/04/02 05:37:26;;;;;;;1.00;0.30;;;;;;;;;;5075687;28;20029;-84
2022/04/02 05:39:53;;;;;;;1.27;0.32;;;;;;;;;;5075794;28;20380;-82
2022/04/02 05:42:19;;;;;;;0.52;0.30;;;;;;;;;;5075163;28;20025;-80
2022/04/02 05:44:45;;;;;;;1.50;0.20;;;;;;;;;;5073658;28;20464;-79
2022/04/02 05:47:11;;;;;;;2.67;0.40;;;;;;;;;;5075109;28;20035;-77
2022/04/02 05:49:37;;;;;;;2.83;0.30;;;;;;;;;;5075424;28;20035;-80
2022/04/02 05:52:04;;;;;;;3.05;0.70;;;;;;;;;;5056830;28;20032;-79
2022/04/02 05:54:31;;;;;;;1.65;0.35;;;;;;;;;;5075546;28;20111;-79
2022/04/02 05:56:57;;;;;;;1.00;0.30;;;;;;;;;;5075335;28;20031;-81
2022/04/02 05:59:23;;;;;;;0.95;0.38;;;;;;;;;;5074765;28;20027;-81
2022/04/02 06:01:50;;;;;;;3.22;0.30;;;;;;;;;;5074030;28;20057;-80
2022/04/02 06:04:16;;;;;;;1.38;0.40;;;;;;;;;;5075036;28;20024;-80
2022/04/02 06:06:42;;;;;;;1.70;0.30;;;;;;;;;;5075002;28;20029;-80
2022/04/02 06:09:08;;;;;;;1.60;0.47;;;;;;;;;;5056958;28;20403;-80
2022/04/02 06:11:34;;;;;;;1.45;0.20;;;;;;;;;;5075493;28;20107;-80
2022/04/02 06:14:01;;;;;;;2.13;0.50;;;;;;;;;;5074943;28;20779;-80
2022/04/02 06:16:27;;;;;;;2.17;1.13;;;;;;;;;;5074728;28;20052;-80
2022/04/02 06:18:53;;;;;;;0.95;0.30;;;;;;;;;;5074827;28;20056;-80
2022/04/02 06:21:20;;;;;;;1.80;0.30;;;;;;;;;;5074368;28;20047;-81
2022/04/02 06:23:46;;;;;;;3.33;1.88;;;;;;;;;;5073892;28;20025;-82
2022/04/02 06:26:12;;;;;;;3.67;2.00;;;;;;;;;;5074826;28;20475;-81
2022/04/02 06:28:40;;;;;;;3.45;1.88;;;;;;;;;;5075218;28;20492;-83
2022/04/02 06:31:06;;;;;;;3.17;1.13;;;;;;;;;;5056792;28;20031;-80
2022/04/02 06:33:33;;;;;;;4.20;1.65;;;;;;;;;;5074710;28;20106;-81
2022/04/02 06:36:00;;;;;;;1.95;0.85;;;;;;;;;;5074850;28;20038;-81
2022/04/02 06:38:26;;;;;;;1.10;0.20;;;;;;;;;;5074837;28;20064;-80
2022/04/02 06:40:53;;;;;;;1.42;0.30;;;;;;;;;;5074928;28;20032;-80
2022/04/02 06:43:19;;;;;;;2.72;0.55;;;;;;;;;;5074738;28;20024;-82
2022/04/02 06:45:45;;;;;;;2.17;0.30;;;;;;;;;;5074589;28;20025;-83
2022/04/02 06:48:15;;;;;;;1.55;0.45;;;;;;;;;;5074563;28;20471;-85
2022/04/02 06:50:43;;;;;;;0.88;0.30;;;;;;;;;;5075077;28;20029;-80
2022/04/02 06:53:09;;;;;;;1.23;0.40;;;;;;;;;;5074630;28;20034;-81
2022/04/02 06:55:36;;;;;;;2.85;0.45;;;;;;;;;;5075096;28;20020;-80
2022/04/02 06:58:02;;;;;;;1.38;0.40;;;;;;;;;;5057010;28;20352;-80
2022/04/02 07:00:28;;;;;;;2.42;0.30;;;;;;;;;;5074240;28;20028;-79
2022/04/02 07:02:55;;;;;;;2.47;1.13;;;;;;;;;;5074316;28;20488;-80
2022/04/02 07:05:21;;;;;;;5.00;2.95;;;;;;;;;;5074284;28;20055;-81
2022/04/02 07:07:49;;;;;;;4.40;1.48;;;;;;;;;;5074221;28;20025;-80
2022/04/02 07:10:15;;;;;;;2.50;0.98;;;;;;;;;;5074476;28;20079;-81
2022/04/02 07:12:41;;;;;;;1.92;0.43;;;;;;;;;;5074233;28;20052;-81
2022/04/02 07:15:08;;;;;;;3.08;0.50;;;;;;;;;;5074364;28;20033;-82
2022/04/02 07:17:35;;;;;;;0.60;0.40;;;;;;;;;;5073559;28;20044;-82
2022/04/02 07:20:02;;;;;;;1.23;0.35;;;;;;;;;;5056078;28;20462;-81
2022/04/02 07:22:28;;;;;;;2.85;0.80;;;;;;;;;;5073727;28;20099;-80
2022/04/02 07:24:55;;;;;;;3.95;1.95;;;;;;;;;;5073721;28;20108;-82
2022/04/02 07:27:22;;;;;;;28.10;21.88;;;;;;;;;;5073512;28;20084;-81
2022/04/02 07:29:55;;;;;;;3.83;0.93;;;;;;;;;;5074171;28;20036;-80
2022/04/02 07:32:21;;;;;;;1.90;0.50;;;;;;;;;;5073390;28;20024;-82
2022/04/02 07:34:47;;;;;;;0.75;0.32;;;;;;;;;;5074095;28;20036;-80
2022/04/02 07:37:13;;;;;;;1.85;0.52;;;;;;;;;;5073863;28;20025;-80
2022/04/02 07:39:45;;;;;;;1.52;0.50;;;;;;;;;;5073879;28;20032;-81
2022/04/02 07:42:14;;;;;;;2.03;0.50;;;;;;;;;;5055401;28;20137;-80
2022/04/02 07:44:59;;;;;;;2.60;0.57;;;;;;;;;;5073482;28;20035;-80
2022/04/02 07:47:29;;;;;;;1.65;0.30;;;;;;;;;;5072247;28;20360;-81
2022/04/02 07:49:59;;;;;;;0.75;0.40;;;;;;;;;;5073310;28;20067;-81
2022/04/02 07:52:25;;;;;;;1.25;0.57;;;;;;;;;;5073413;28;20043;-82
2022/04/02 07:54:55;;;;;;;0.60;0.38;;;;;;;;;;5072941;28;20206;-82
2022/04/02 07:57:24;;;;;;;1.55;0.30;;;;;;;;;;5072519;28;20111;-81
2022/04/02 07:59:54;;;;;;;4.05;0.40;;;;;;;;;;5072819;28;20036;-81
2022/04/02 08:05:11;;;;;;;1.63;0.20;;;;;;;;;;5073259;28;20113;-84
2022/04/02 08:07:44;;;;;;;1.08;0.30;;;;;;;;;;5055017;28;20174;-83
2022/04/02 08:10:12;;;;;;;2.45;0.52;;;;;;;;;;5072789;28;20074;-84
2022/04/02 08:12:39;;;;;;;1.67;0.57;;;;;;;;;;5054714;28;20032;-84
2022/04/02 08:15:07;;;;;;;1.00;0.30;;;;;;;;;;5073007;28;20487;-86
2022/04/02 08:17:34;;;;;;;2.30;0.35;;;;;;;;;;5072377;28;20052;-84
2022/04/02 08:20:01;;;;;;;1.65;0.30;;;;;;;;;;5072782;28;20035;-85
2022/04/02 08:22:27;;;;;;;0.85;0.43;;;;;;;;;;5073134;28;20016;-84
2022/04/02 08:24:54;;;;;;;1.77;0.20;;;;;;;;;;5072570;28;20079;-83
2022/04/02 08:27:20;;;;;;;0.50;0.20;;;;;;;;;;5072560;28;20048;-84
2022/04/02 08:30:06;;;;;;;1.38;0.35;;;;;;;;;;5054810;28;20056;-83
2022/04/02 08:32:42;;;;;;;0.73;0.20;;;;;;;;;;5072469;28;20035;-83
2022/04/02 08:35:09;;;;;;;1.05;0.20;;;;;;;;;;5072569;28;20025;-84
2022/04/02 08:37:54;;;;;;;1.80;0.40;;;;;;;;;;5072550;28;20437;-83
2022/04/02 08:40:39;;;;;;;2.10;0.80;;;;;;;;;;5072539;28;20462;-83
2022/04/02 08:43:23;;;;;;;3.40;1.05;;;;;;;;;;5072566;28;20099;-83
2022/04/02 08:45:55;;;;;;;2.20;0.30;;;;;;;;;;5072502;28;20016;-84
2022/04/02 08:48:24;;;;;;;1.08;0.30;;;;;;;;;;5072402;28;20039;-83
2022/04/02 08:51:12;;;;;;;1.95;0.45;;;;;;;;;;5072446;28;20368;-82
2022/04/02 08:53:41;;;;;;;1.45;0.30;;;;;;;;;;5072235;28;20509;-83
2022/04/02 08:56:10;;;;;;;1.65;0.40;;;;;;;;;;5072579;28;20483;-83
2022/04/02 08:59:00;;;;;;;0.50;0.30;;;;;;;;;;5072333;28;20032;-83
2022/04/02 09:01:35;;;;;;;3.22;0.40;;;;;;;;;;5072130;28;20021;-83
2022/04/02 09:04:10;;;;;;;2.60;0.50;;;;;;;;;;5072189;28;20029;-83
2022/04/02 09:06:50;;;;;;;2.58;0.50;;;;;;;;;;5072386;28;20036;-81
2022/04/02 09:09:34;;;;;;;2.80;0.40;;;;;;;;;;5073710;28;20025;-83
2022/04/02 09:12:06;;;;;;;1.95;0.50;;;;;;;;;;5076019;28;20028;-84
2022/04/02 09:14:51;;;;;;;3.00;0.70;;;;;;;;;;5076238;28;20043;-84
2022/04/02 09:17:36;;;;;;;2.05;0.50;;;;;;;;;;5075960;28;20076;-83
2022/04/02 09:20:02;;;;;;;;;;;;;;;;;;5076090;28;20483;-82
2022/04/02 09:22:34;;;;;;;1.83;0.50;;;;;;;;;;5075818;28;20424;-82
2022/04/02 09:25:19;;;;;;;1.75;0.60;;;;;;;;;;5076141;28;20084;-86
2022/04/02 09:27:45;;;;;;;;;;;;;;;;;;5076635;28;20024;-82
2022/04/02 09:30:11;;;;;;;1.30;0.30;;;;;;;;;;5075658;28;19912;-86
2022/04/02 09:32:57;;;;;;;1.00;0.30;;;;;;;;;;5057971;28;20036;-86
2022/04/02 09:35:36;;;;;;;2.75;0.60;;;;;;;;;;5075885;28;20098;-82
2022/04/02 09:38:21;;;;;;;0.52;0.20;;;;;;;;;;5075382;28;20032;-82
2022/04/02 09:40:48;;;;;;;0.50;0.20;;;;;;;;;;5073904;28;20039;-82
2022/04/02 09:55:14;;;;;;;1.40;0.40;;;;;;;;;;5089441;27;20377;-76
2022/04/02 09:57:46;;;;;;;0.75;0.20;;;;;;;;;;5089372;28;20038;-78
2022/04/02 10:00:13;;;;;;;0.75;0.40;;;;;;;;;;5089573;28;20024;-77
2022/04/02 10:02:39;;;;;;;13.30;1.13;;;;;;;;;;5089149;28;20060;-78
2022/04/02 10:05:08;;;;;;;0.35;0.10;;;;;;;;;;5089384;28;20035;-73
2022/04/02 10:07:43;;;;;;;0.82;0.40;;;;;;;;;;5089346;28;20107;-77
2022/04/02 10:10:09;;;;;;;1.35;0.28;;;;;;;;;;5089316;28;20486;-78
2022/04/02 10:12:40;;;;;;;1.45;0.47;;;;;;;;;;5089182;28;20028;-79
2022/04/02 10:15:06;;;;;;;1.33;0.60;;;;;;;;;;5089493;28;20462;-80
2022/04/02 10:17:35;;;;;;;1.67;0.60;;;;;;;;;;5089243;28;20085;-77
2022/04/02 10:20:01;;;;;;;2.08;0.25;;;;;;;;;;5089112;28;20029;-79
2022/04/02 10:22:39;;;;;;;1.13;0.30;;;;;;;;;;5088744;28;20028;-75
2022/04/02 10:25:07;;;;;;;0.30;0.20;;;;;;;;;;5088669;28;20029;-78
2022/04/02 10:27:36;;;;;;;0.65;0.20;;;;;;;;;;5089113;28;20032;-76
2022/04/02 10:30:09;;;;;;;0.30;0.20;;;;;;;;;;5088561;28;20034;-77
2022/04/02 10:32:57;;;;;;;0.75;0.38;;;;;;;;;;5088870;28;20086;-77
2022/04/02 10:35:26;;;;;;;0.50;0.32;;;;;;;;;;5088858;28;20080;-79
2022/04/02 10:38:04;;;;;;;1.27;0.50;;;;;;;;;;5088528;28;20020;-77
2022/04/02 10:40:31;;;;;;;0.40;0.25;;;;;;;;;;5088697;28;20032;-76
2022/04/02 10:43:10;;;;;;;2.28;0.73;;;;;;;;;;5088778;28;20028;-79
2022/04/02 10:45:39;;;;;;;2.30;1.02;;;;;;;;;;5088314;28;20028;-81
2022/04/02 10:48:24;;;;;;;2.53;1.73;;;;;;;;;;5088440;28;20108;-78
2022/04/02 10:50:51;;;;;;;0.57;0.40;;;;;;;;;;5088302;28;20032;-78
2022/04/02 10:53:18;;;;;;;2.00;1.00;;;;;;;;;;5087813;28;20044;-78
2022/04/02 10:55:45;;;;;;;0.55;0.20;;;;;;;;;;5076830;28;20048;-76
2022/04/02 10:58:12;;;;;;;15.73;14.27;;;;;;;;;;5230516;22;20106;-76
2022/04/02 11:00:39;;;;;;;6.07;1.50;;;;;;;;;;5075007;28;20119;-75
2022/04/02 11:03:08;;;;;;;0.95;0.55;;;;;;;;;;5074453;28;20505;-77
2022/04/02 11:05:38;;;;;;;1.45;0.85;;;;;;;;;;5074820;28;20130;-75
2022/04/02 11:08:10;;;;;;;1.42;0.30;;;;;;;;;;5074475;28;20020;-77
2022/04/02 11:10:37;;;;;;;1.13;0.20;;;;;;;;;;5074494;28;20486;-77
2022/04/02 11:13:04;;;;;;;2.38;1.38;;;;;;;;;;5074530;28;20040;-76
2022/04/02 11:15:38;;;;;;;1.63;0.75;;;;;;;;;;5074333;28;20033;-76
2022/04/02 11:18:04;;;;;;;0.30;0.17;;;;;;;;;;5074797;28;20554;-76
2022/04/02 11:20:31;;;;;;;0.98;0.40;;;;;;;;;;5074099;28;20024;-76
2022/04/02 11:23:19;;;;;;;0.35;0.17;;;;;;;;;;5074423;28;20020;-75
2022/04/02 11:25:52;;;;;;;3.05;0.40;;;;;;;;;;5074600;28;20028;-75
2022/04/02 11:28:22;;;;;;;2.20;0.40;;;;;;;;;;5073800;28;20024;-75
2022/04/02 11:30:51;;;;;;;2.45;0.40;;;;;;;;;;5074176;28;20028;-76
2022/04/02 11:33:19;;;;;;;1.83;0.30;;;;;;;;;;5071262;28;20433;-75
2022/04/02 11:36:06;;;;;;;0.75;0.10;;;;;;;;;;5074378;28;20024;-76
2022/04/02 11:38:57;;;;;;;1.00;0.40;;;;;;;;;;5074204;28;20020;-76
2022/04/02 11:41:28;;;;;;;0.75;0.30;;;;;;;;;;5073777;28;20032;-76
2022/04/02 11:44:12;;;;;;;2.55;0.25;;;;;;;;;;5074426;28;20040;-76
2022/04/02 11:46:38;;;;;;;;;;;;;;;;;;5074017;28;20033;-76
2022/04/02 11:49:09;;;;;;;0.25;0.20;;;;;;;;;;5074379;28;20003;-75
2022/04/02 11:51:35;;;;;;;0.10;0.10;;;;;;;;;;5073932;28;20028;-75
2022/04/02 11:57:05;;;;;;;0.20;0.10;;;;;;;;;;5074184;28;20085;-75
2022/04/02 11:59:34;;;;;;;0.20;0.10;;;;;;;;;;5073724;28;20442;-76
2022/04/02 12:02:01;;;;;;;0.65;0.10;;;;;;;;;;5073691;28;20081;-76
2022/04/02 12:04:27;;;;;;;1.17;0.20;;;;;;;;;;5073680;28;20040;-76
2022/04/02 12:09:50;;;;;;;0.35;0.20;;;;;;;;;;5073617;28;20395;-76
2022/04/02 12:12:22;;;;;;;1.23;0.75;;;;;;;;;;5073915;28;20028;-76
2022/04/02 12:14:48;;;;;;;0.40;0.25;;;;;;;;;;5073431;28;20028;-76
2022/04/02 12:17:15;;;;;;;0.88;0.50;;;;;;;;;;5073238;28;20039;-76
2022/04/02 12:19:45;;;;;;;1.63;0.40;;;;;;;;;;5073427;28;20029;-76
2022/04/02 12:22:30;;;;;;;1.55;0.35;;;;;;;;;;5073223;28;20067;-76
2022/04/02 12:24:56;;;;;;;;;;;;;;;;;;5073582;28;20446;-76
2022/04/02 12:27:41;;;;;;;0.60;0.30;;;;;;;;;;5073345;28;19995;-76
2022/04/02 12:30:08;;;;;;;1.35;0.30;;;;;;;;;;5071988;28;20810;-75
2022/04/02 12:32:37;;;;;;;0.65;0.50;;;;;;;;;;5073033;28;20028;-76
2022/04/02 12:35:03;;;;;;;1.63;1.05;;;;;;;;;;5073146;28;20031;-75
2022/04/02 12:37:31;;;;;;;1.75;0.65;;;;;;;;;;5072878;28;20415;-76
2022/04/02 12:39:58;;;;;;;0.82;0.30;;;;;;;;;;5073085;28;20477;-75
2022/04/02 12:42:44;;;;;;;1.83;0.30;;;;;;;;;;5072774;28;20020;-76
2022/04/02 12:45:20;;;;;;;1.42;0.20;;;;;;;;;;5072762;28;20039;-76
2022/04/02 12:47:57;;;;;;;1.38;0.28;;;;;;;;;;5072777;28;20028;-76
2022/04/02 12:50:23;;;;;;;1.58;0.30;;;;;;;;;;5072762;28;20028;-75
2022/04/02 12:52:50;;;;;;;0.65;0.30;;;;;;;;;;5072849;28;20044;-76
2022/04/02 12:55:17;;;;;;;2.35;0.40;;;;;;;;;;5072568;28;20032;-76
2022/04/02 12:58:02;;;;;;;0.98;0.32;;;;;;;;;;5072550;28;20045;-76
2022/04/02 13:00:28;;;;;;;;;;;;;;;;;;5071033;28;20375;-76
2022/04/02 13:02:59;;;;;;;2.35;0.40;;;;;;;;;;5091474;28;19915;-76
2022/04/02 13:05:26;;;;;;;1.60;0.50;;;;;;;;;;5083426;28;20085;-76
2022/04/02 13:07:58;;;;;;;0.93;0.30;;;;;;;;;;5072677;28;20028;-76
2022/04/02 13:10:25;;;;;;;0.90;0.40;;;;;;;;;;5086473;28;20032;-76
2022/04/02 13:12:53;;;;;;;2.22;1.42;;;;;;;;;;5072760;28;20031;-75
2022/04/02 13:15:19;;;;;;;5.00;2.20;;;;;;;;;;5072475;28;20028;-76
2022/04/02 13:20:38;;;;;;;3.53;2.22;;;;;;;;;;5072247;28;20098;-76
2022/04/02 13:23:06;;;;;;;3.95;2.83;;;;;;;;;;5072332;28;20089;-76
2022/04/02 13:25:34;;;;;;;2.47;1.00;;;;;;;;;;5072262;28;20044;-77
2022/04/02 13:28:18;;;;;;;3.45;2.20;;;;;;;;;;5072544;28;20024;-76
2022/04/02 13:30:49;;;;;;;2.20;0.70;;;;;;;;;;5072461;28;20035;-76
2022/04/02 13:33:35;;;;;;;3.00;1.50;;;;;;;;;;5072249;28;20092;-76
2022/04/02 13:36:20;;;;;;;1.95;0.80;;;;;;;;;;5072267;28;20371;-76
2022/04/02 13:39:06;;;;;;;1.85;0.70;;;;;;;;;;5072152;28;20027;-75
2022/04/02 13:41:35;;;;;;;2.15;0.75;;;;;;;;;;5071972;28;20025;-77
2022/04/02 13:44:06;;;;;;;1.75;0.55;;;;;;;;;;5071946;28;20040;-76
2022/04/02 13:46:39;;;;;;;1.35;0.22;;;;;;;;;;5072180;28;20078;-75
2022/04/02 13:49:09;;;;;;;0.93;0.30;;;;;;;;;;5071914;28;20020;-76
2022/04/02 13:51:43;;;;;;;1.00;0.50;;;;;;;;;;5072223;28;20471;-76
2022/04/02 13:54:11;;;;;;;1.40;0.80;;;;;;;;;;5071916;28;20028;-76
2022/04/02 13:56:39;;;;;;;0.80;0.50;;;;;;;;;;5071977;28;20036;-76
2022/04/02 13:59:07;;;;;;;0.85;0.30;;;;;;;;;;5070697;28;20139;-77
2022/04/02 14:01:36;;;;;;;0.57;0.20;;;;;;;;;;5071408;28;20029;-77
2022/04/02 14:04:12;;;;;;;2.25;0.30;;;;;;;;;;5071240;28;20025;-77
2022/04/02 14:06:40;;;;;;;1.20;0.40;;;;;;;;;;5068682;28;20544;-76
2022/04/02 14:09:08;;;;;;;2.72;1.08;;;;;;;;;;5071206;28;20017;-76
2022/04/02 14:11:37;;;;;;;1.45;0.50;;;;;;;;;;5071694;28;20111;-76
2022/04/02 14:14:25;;;;;;;1.02;0.40;;;;;;;;;;5071797;28;20095;-76
2022/04/02 14:17:02;;;;;;;3.53;1.00;;;;;;;;;;5071933;28;20375;-76
2022/04/02 14:19:35;;;;;;;2.10;0.70;;;;;;;;;;5071431;28;20387;-76
2022/04/02 14:22:04;;;;;;;1.42;0.40;;;;;;;;;;5071893;28;20056;-76
2022/04/02 14:24:37;;;;;;;1.05;0.60;;;;;;;;;;5071561;28;20491;-76
2022/04/02 14:27:21;;;;;;;1.67;1.10;;;;;;;;;;5071708;28;20032;-76
2022/04/02 14:30:04;;;;;;;1.80;0.98;;;;;;;;;;5072645;28;20020;-76
2022/04/02 14:32:49;;;;;;;2.80;0.45;;;;;;;;;;5075474;28;20488;-76
2022/04/02 14:35:41;;;;;;;2.10;1.55;;;;;;;;;;5075493;28;20037;-76
2022/04/02 14:38:29;;;;;;;3.13;0.70;;;;;;;;;;5059213;28;20041;-76
2022/04/02 14:40:58;;;;;;;1.33;0.60;;;;;;;;;;5075115;28;20025;-76
2022/04/02 14:43:43;;;;;;;1.23;0.82;;;;;;;;;;5074801;28;20043;-76
2022/04/02 14:46:26;;;;;;;2.08;0.50;;;;;;;;;;5075679;28;20020;-76
2022/04/02 14:49:14;;;;;;;0.80;0.47;;;;;;;;;;5074592;28;20032;-77
2022/04/02 14:52:02;;;;;;;2.55;0.60;;;;;;;;;;5055181;28;20037;-76
2022/04/02 14:54:46;;;;;;;1.27;0.73;;;;;;;;;;5055041;28;20053;-76
2022/04/02 14:57:12;;;;;;;;;;;;;;;;;;5070927;28;20032;-76
2022/04/02 14:59:57;;;;;;;1.25;0.47;;;;;;;;;;5074423;28;19908;-75
2022/04/02 15:02:42;;;;;;;2.67;0.90;;;;;;;;;;5074848;28;20025;-75
2022/04/02 15:05:14;;;;;;;2.20;0.90;;;;;;;;;;5074737;28;20033;-75
2022/04/02 15:07:59;;;;;;;2.25;1.35;;;;;;;;;;5074846;28;20090;-76
2022/04/02 15:10:43;;;;;;;1.73;0.90;;;;;;;;;;5074364;28;20464;-76
2022/04/02 15:13:10;;;;;;;3.13;1.85;;;;;;;;;;5074722;28;20017;-76
2022/04/02 15:15:40;;;;;;;2.47;0.95;;;;;;;;;;5074374;28;20041;-75
2022/04/02 15:18:08;;;;;;;4.28;2.45;;;;;;;;;;5074719;28;20036;-76
2022/04/02 15:20:34;;;;;;;2.15;1.40;;;;;;;;;;5074066;28;20086;-75
2022/04/02 15:23:07;;;;;;;2.75;0.90;;;;;;;;;;5074543;28;20060;-76
2022/04/02 15:25:38;;;;;;;1.20;0.60;;;;;;;;;;5074289;28;20039;-75